PWSweather.com
Personal Weather Stations
Station Observations
KMIEASTT1
Tawas Bay, East Tawas, MI 48730

Tawas BayEast Tawas, MI 48730

Lat: 44.28, Lon: -83.48

Elevation: 600

Station Type: Davis VantagePro

http://www.tawasbayweather.com

High Low Average
Temperature 40.9°F4.9°C 32.4°F0.2°C 35.4°F1.9°C
Dew Point 32.1°F0.1°C 21.3°F-5.9°C 29.0°F-1.7°C
Winds 14.0 mph 22.5 kmh Calm Calm 4.0 mph NW6.4 kmh NW
Wind Gusts 18.0 mph29.0 kmh 1.0 mph1.6 kmh 7.0 mph11.3 kmh
Humidity 96% 50% 80%
Pressure 29.87 in1011.5 mb 29.57 in1001.4 mb -
Precipitation 0.00 in0.0 mm - -
Hour Temp Dew Point Humidity Winds Wind Gusts Pressure Precip Precip Rate Daily Precip Total
12:02 AM 33.7°F0.9°C 31.4°F-0.3°C 91% 1.0 mph E1.6 kmh E 1.0 mph1.6 kmh 29.66 in1004.4 mb 0.00 in0.0 mm 0.00 in/hr0.0 mm/hr 0.00 in0.0 mm
12:16 AM 33.9°F1.1°C 31.8°F-0.1°C 92% Calm Calm -- 29.65 in1004.1 mb 0.00 in0.0 mm 0.00 in/hr0.0 mm/hr 0.00 in0.0 mm
12:31 AM 34.3°F1.3°C 32.0°F0.0°C 91% Calm Calm 1.0 mph1.6 kmh 29.64 in1003.7 mb 0.00 in0.0 mm 0.00 in/hr0.0 mm/hr 0.00 in0.0 mm
12:45 AM 33.8°F1.0°C 31.5°F-0.3°C 91% 1.0 mph E1.6 kmh E 2.0 mph3.2 kmh 29.64 in1003.7 mb 0.00 in0.0 mm 0.00 in/hr0.0 mm/hr 0.00 in0.0 mm
01:02 AM 33.2°F0.7°C 31.1°F-0.5°C 92% Calm Calm 2.0 mph3.2 kmh 29.63 in1003.4 mb 0.00 in0.0 mm 0.00 in/hr0.0 mm/hr 0.00 in0.0 mm
01:16 AM 32.9°F0.5°C 31.4°F-0.3°C 94% 2.0 mph NNW3.2 kmh NNW 2.0 mph3.2 kmh 29.62 in1003.0 mb 0.00 in0.0 mm 0.00 in/hr0.0 mm/hr 0.00 in0.0 mm
01:31 AM 32.9°F0.5°C 31.4°F-0.3°C 94% Calm Calm 1.0 mph1.6 kmh 29.61 in1002.7 mb 0.00 in0.0 mm 0.00 in/hr0.0 mm/hr 0.00 in0.0 mm
01:46 AM 33.0°F0.6°C 31.5°F-0.3°C 94% 1.0 mph NNW1.6 kmh NNW 3.0 mph4.8 kmh 29.60 in1002.4 mb 0.00 in0.0 mm 0.00 in/hr0.0 mm/hr 0.00 in0.0 mm
02:01 AM 32.8°F0.4°C 31.5°F-0.3°C 95% 2.0 mph NNW3.2 kmh NNW 3.0 mph4.8 kmh 29.60 in1002.4 mb 0.00 in0.0 mm 0.00 in/hr0.0 mm/hr 0.00 in0.0 mm
02:17 AM 32.8°F0.4°C 31.5°F-0.3°C 95% 1.0 mph NNW1.6 kmh NNW 2.0 mph3.2 kmh 29.59 in1002.0 mb 0.00 in0.0 mm 0.00 in/hr0.0 mm/hr 0.00 in0.0 mm
02:31 AM 32.8°F0.4°C 31.5°F-0.3°C 95% Calm Calm 3.0 mph4.8 kmh 29.59 in1002.0 mb 0.00 in0.0 mm 0.00 in/hr0.0 mm/hr 0.00 in0.0 mm
02:46 AM 32.9°F0.5°C 31.6°F-0.2°C 95% 1.0 mph NNW1.6 kmh NNW 2.0 mph3.2 kmh 29.58 in1001.7 mb 0.00 in0.0 mm 0.00 in/hr0.0 mm/hr 0.00 in0.0 mm
03:02 AM 32.8°F0.4°C 31.5°F-0.3°C 95% 1.0 mph NNW1.6 kmh NNW 3.0 mph4.8 kmh 29.59 in1002.0 mb 0.00 in0.0 mm 0.00 in/hr0.0 mm/hr 0.00 in0.0 mm
03:16 AM 32.7°F0.4°C 31.7°F-0.2°C 96% 2.0 mph NNW3.2 kmh NNW 3.0 mph4.8 kmh 29.58 in1001.7 mb 0.00 in0.0 mm 0.00 in/hr0.0 mm/hr 0.00 in0.0 mm
03:30 AM 32.6°F0.3°C 31.6°F-0.2°C 96% 2.0 mph NNW3.2 kmh NNW 3.0 mph4.8 kmh 29.57 in1001.4 mb 0.00 in0.0 mm 0.00 in/hr0.0 mm/hr 0.00 in0.0 mm
03:46 AM 32.7°F0.4°C 31.7°F-0.2°C 96% 1.0 mph NNW1.6 kmh NNW 3.0 mph4.8 kmh 29.58 in1001.7 mb 0.00 in0.0 mm 0.00 in/hr0.0 mm/hr 0.00 in0.0 mm
04:02 AM 32.6°F0.3°C 31.6°F-0.2°C 96% Calm Calm 3.0 mph4.8 kmh 29.58 in1001.7 mb 0.00 in0.0 mm 0.00 in/hr0.0 mm/hr 0.00 in0.0 mm
04:15 AM 32.6°F0.3°C 31.6°F-0.2°C 96% 2.0 mph NW3.2 kmh NW 3.0 mph4.8 kmh 29.59 in1002.0 mb 0.00 in0.0 mm 0.00 in/hr0.0 mm/hr 0.00 in0.0 mm
04:31 AM 32.6°F0.3°C 31.6°F-0.2°C 96% 2.0 mph NW3.2 kmh NW 4.0 mph6.4 kmh 29.58 in1001.7 mb 0.00 in0.0 mm 0.00 in/hr0.0 mm/hr 0.00 in0.0 mm
04:46 AM 32.6°F0.3°C 31.6°F-0.2°C 96% Calm Calm 2.0 mph3.2 kmh 29.59 in1002.0 mb 0.00 in0.0 mm 0.00 in/hr0.0 mm/hr 0.00 in0.0 mm
05:01 AM 32.6°F0.3°C 31.6°F-0.2°C 96% 2.0 mph NW3.2 kmh NW 3.0 mph4.8 kmh 29.58 in1001.7 mb 0.00 in0.0 mm 0.00 in/hr0.0 mm/hr 0.00 in0.0 mm
05:16 AM 32.6°F0.3°C 31.6°F-0.2°C 96% 2.0 mph WNW3.2 kmh WNW 4.0 mph6.4 kmh 29.59 in1002.0 mb 0.00 in0.0 mm 0.00 in/hr0.0 mm/hr 0.00 in0.0 mm
05:31 AM 32.6°F0.3°C 31.6°F-0.2°C 96% 1.0 mph NW1.6 kmh NW 3.0 mph4.8 kmh 29.59 in1002.0 mb 0.00 in0.0 mm 0.00 in/hr0.0 mm/hr 0.00 in0.0 mm
05:46 AM 32.6°F0.3°C 31.6°F-0.2°C 96% 2.0 mph NW3.2 kmh NW 5.0 mph8.0 kmh 29.58 in1001.7 mb 0.00 in0.0 mm 0.00 in/hr0.0 mm/hr 0.00 in0.0 mm
06:01 AM 32.6°F0.3°C 31.6°F-0.2°C 96% 2.0 mph NW3.2 kmh NW 4.0 mph6.4 kmh 29.58 in1001.7 mb 0.00 in0.0 mm 0.00 in/hr0.0 mm/hr 0.00 in0.0 mm
06:16 AM 32.6°F0.3°C 31.6°F-0.2°C 96% 2.0 mph NW3.2 kmh NW 5.0 mph8.0 kmh 29.58 in1001.7 mb 0.00 in0.0 mm 0.00 in/hr0.0 mm/hr 0.00 in0.0 mm
06:31 AM 32.6°F0.3°C 31.6°F-0.2°C 96% 2.0 mph NW3.2 kmh NW 4.0 mph6.4 kmh 29.58 in1001.7 mb 0.00 in0.0 mm 0.00 in/hr0.0 mm/hr 0.00 in0.0 mm
06:46 AM 32.5°F0.3°C 31.5°F-0.3°C 96% 2.0 mph NW3.2 kmh NW 3.0 mph4.8 kmh 29.58 in1001.7 mb 0.00 in0.0 mm 0.00 in/hr0.0 mm/hr 0.00 in0.0 mm
07:02 AM 32.4°F0.2°C 31.4°F-0.3°C 96% 2.0 mph NW3.2 kmh NW 4.0 mph6.4 kmh 29.58 in1001.7 mb 0.00 in0.0 mm 0.00 in/hr0.0 mm/hr 0.00 in0.0 mm
07:16 AM 32.4°F0.2°C 31.4°F-0.3°C 96% 1.0 mph NW1.6 kmh NW 3.0 mph4.8 kmh 29.59 in1002.0 mb 0.00 in0.0 mm 0.00 in/hr0.0 mm/hr 0.00 in0.0 mm
07:31 AM 32.6°F0.3°C 31.6°F-0.2°C 96% 2.0 mph NW3.2 kmh NW 3.0 mph4.8 kmh 29.59 in1002.0 mb 0.00 in0.0 mm 0.00 in/hr0.0 mm/hr 0.00 in0.0 mm
07:46 AM 32.8°F0.4°C 31.5°F-0.3°C 95% 2.0 mph NW3.2 kmh NW 5.0 mph8.0 kmh 29.60 in1002.4 mb 0.00 in0.0 mm 0.00 in/hr0.0 mm/hr 0.00 in0.0 mm
08:02 AM 33.0°F0.6°C 31.7°F-0.2°C 95% 4.0 mph WNW6.4 kmh WNW 5.0 mph8.0 kmh 29.60 in1002.4 mb 0.00 in0.0 mm 0.00 in/hr0.0 mm/hr 0.00 in0.0 mm
08:16 AM 33.3°F0.7°C 31.8°F-0.1°C 94% 3.0 mph NW4.8 kmh NW 7.0 mph11.3 kmh 29.61 in1002.7 mb 0.00 in0.0 mm 0.00 in/hr0.0 mm/hr 0.00 in0.0 mm
08:31 AM 33.4°F0.8°C 31.9°F-0.1°C 94% 4.0 mph NW6.4 kmh NW 7.0 mph11.3 kmh 29.61 in1002.7 mb 0.00 in0.0 mm 0.00 in/hr0.0 mm/hr 0.00 in0.0 mm
08:45 AM 33.6°F0.9°C 32.1°F0.1°C 94% 1.0 mph NW1.6 kmh NW 6.0 mph9.7 kmh 29.62 in1003.0 mb 0.00 in0.0 mm 0.00 in/hr0.0 mm/hr 0.00 in0.0 mm
09:02 AM 33.8°F1.0°C 31.7°F-0.2°C 92% 5.0 mph WNW8.0 kmh WNW 6.0 mph9.7 kmh 29.62 in1003.0 mb 0.00 in0.0 mm 0.00 in/hr0.0 mm/hr 0.00 in0.0 mm
09:16 AM 33.8°F1.0°C 31.7°F-0.2°C 92% 5.0 mph NW8.0 kmh NW 8.0 mph12.9 kmh 29.62 in1003.0 mb 0.00 in0.0 mm 0.00 in/hr0.0 mm/hr 0.00 in0.0 mm
09:31 AM 33.8°F1.0°C 31.5°F-0.3°C 91% 4.0 mph NW6.4 kmh NW 8.0 mph12.9 kmh 29.63 in1003.4 mb 0.00 in0.0 mm 0.00 in/hr0.0 mm/hr 0.00 in0.0 mm
09:45 AM 33.9°F1.1°C 31.6°F-0.2°C 91% 3.0 mph NW4.8 kmh NW 8.0 mph12.9 kmh 29.64 in1003.7 mb 0.00 in0.0 mm 0.00 in/hr0.0 mm/hr 0.00 in0.0 mm
10:02 AM 34.1°F1.2°C 31.5°F-0.3°C 90% 4.0 mph WNW6.4 kmh WNW 7.0 mph11.3 kmh 29.64 in1003.7 mb 0.00 in0.0 mm 0.00 in/hr0.0 mm/hr 0.00 in0.0 mm
10:31 AM 34.5°F1.4°C 31.6°F-0.2°C 89% 7.0 mph WNW11.3 kmh WNW 10.0 mph16.1 kmh 29.66 in1004.4 mb 0.00 in0.0 mm 0.00 in/hr0.0 mm/hr 0.00 in0.0 mm
10:46 AM 34.8°F1.6°C 31.6°F-0.2°C 88% 4.0 mph NNW6.4 kmh NNW 10.0 mph16.1 kmh 29.66 in1004.4 mb 0.00 in0.0 mm 0.00 in/hr0.0 mm/hr 0.00 in0.0 mm
11:02 AM 35.0°F1.7°C 31.8°F-0.1°C 88% 4.0 mph NW6.4 kmh NW 13.0 mph20.9 kmh 29.67 in1004.7 mb 0.00 in0.0 mm 0.00 in/hr0.0 mm/hr 0.00 in0.0 mm
11:16 AM 35.3°F1.8°C 31.8°F-0.1°C 87% 5.0 mph NW8.0 kmh NW 12.0 mph19.3 kmh 29.68 in1005.1 mb 0.00 in0.0 mm 0.00 in/hr0.0 mm/hr 0.00 in0.0 mm
11:31 AM 35.7°F2.1°C 31.9°F-0.1°C 86% 3.0 mph NW4.8 kmh NW 8.0 mph12.9 kmh 29.69 in1005.4 mb 0.00 in0.0 mm 0.00 in/hr0.0 mm/hr 0.00 in0.0 mm
11:45 AM 35.6°F2.0°C 31.8°F-0.1°C 86% 7.0 mph W11.3 kmh W 9.0 mph14.5 kmh 29.70 in1005.8 mb 0.00 in0.0 mm 0.00 in/hr0.0 mm/hr 0.00 in0.0 mm
12:02 PM 36.0°F2.2°C 31.6°F-0.2°C 84% 3.0 mph NW4.8 kmh NW 8.0 mph12.9 kmh 29.71 in1006.1 mb 0.00 in0.0 mm 0.00 in/hr0.0 mm/hr 0.00 in0.0 mm
12:16 PM 36.2°F2.3°C 31.5°F-0.3°C 83% 5.0 mph NW8.0 kmh NW 12.0 mph19.3 kmh 29.71 in1006.1 mb 0.00 in0.0 mm 0.00 in/hr0.0 mm/hr 0.00 in0.0 mm
12:31 PM 36.5°F2.5°C 30.9°F-0.6°C 80% 5.0 mph NW8.0 kmh NW 10.0 mph16.1 kmh 29.72 in1006.4 mb 0.00 in0.0 mm 0.00 in/hr0.0 mm/hr 0.00 in0.0 mm
12:46 PM 36.6°F2.6°C 30.1°F-1.1°C 77% 4.0 mph NW6.4 kmh NW 9.0 mph14.5 kmh 29.72 in1006.4 mb 0.00 in0.0 mm 0.00 in/hr0.0 mm/hr 0.00 in0.0 mm
01:02 PM 36.4°F2.4°C 29.6°F-1.3°C 76% 10.0 mph NW16.1 kmh NW 14.0 mph22.5 kmh 29.73 in1006.8 mb 0.00 in0.0 mm 0.00 in/hr0.0 mm/hr 0.00 in0.0 mm
01:17 PM 36.2°F2.3°C 27.4°F-2.6°C 70% 14.0 mph NW22.5 kmh NW 15.0 mph24.1 kmh 29.73 in1006.8 mb 0.00 in0.0 mm 0.00 in/hr0.0 mm/hr 0.00 in0.0 mm
01:31 PM 36.5°F2.5°C 27.7°F-2.4°C 70% 6.0 mph NNW9.7 kmh NNW 12.0 mph19.3 kmh 29.73 in1006.8 mb 0.00 in0.0 mm 0.00 in/hr0.0 mm/hr 0.00 in0.0 mm
01:46 PM 36.8°F2.7°C 27.2°F-2.7°C 68% 5.0 mph W8.0 kmh W 12.0 mph19.3 kmh 29.74 in1007.1 mb 0.00 in0.0 mm 0.00 in/hr0.0 mm/hr 0.00 in0.0 mm
02:02 PM 38.3°F3.5°C 28.0°F-2.2°C 66% 9.0 mph NW14.5 kmh NW 9.0 mph14.5 kmh 29.74 in1007.1 mb 0.00 in0.0 mm 0.00 in/hr0.0 mm/hr 0.00 in0.0 mm
02:15 PM 37.7°F3.2°C 26.6°F-3.0°C 64% 9.0 mph NW14.5 kmh NW 14.0 mph22.5 kmh 29.74 in1007.1 mb 0.00 in0.0 mm 0.00 in/hr0.0 mm/hr 0.00 in0.0 mm
02:31 PM 39.3°F4.1°C 26.6°F-3.0°C 60% 5.0 mph W8.0 kmh W 11.0 mph17.7 kmh 29.75 in1007.5 mb 0.00 in0.0 mm 0.00 in/hr0.0 mm/hr 0.00 in0.0 mm
02:46 PM 38.4°F3.6°C 25.3°F-3.7°C 59% 4.0 mph W6.4 kmh W 11.0 mph17.7 kmh 29.75 in1007.5 mb 0.00 in0.0 mm 0.00 in/hr0.0 mm/hr 0.00 in0.0 mm
03:02 PM 39.2°F4.0°C 26.1°F-3.3°C 59% 6.0 mph WSW9.7 kmh WSW 18.0 mph29.0 kmh 29.75 in1007.5 mb 0.00 in0.0 mm 0.00 in/hr0.0 mm/hr 0.00 in0.0 mm
03:16 PM 40.3°F4.6°C 26.3°F-3.2°C 57% 6.0 mph NNW9.7 kmh NNW 10.0 mph16.1 kmh 29.75 in1007.5 mb 0.00 in0.0 mm 0.00 in/hr0.0 mm/hr 0.00 in0.0 mm
03:31 PM 40.9°F4.9°C 26.0°F-3.3°C 55% 4.0 mph W6.4 kmh W 9.0 mph14.5 kmh 29.76 in1007.8 mb 0.00 in0.0 mm 0.00 in/hr0.0 mm/hr 0.00 in0.0 mm
03:46 PM 39.5°F4.2°C 25.5°F-3.6°C 57% 8.0 mph W12.9 kmh W 14.0 mph22.5 kmh 29.77 in1008.1 mb 0.00 in0.0 mm 0.00 in/hr0.0 mm/hr 0.00 in0.0 mm
04:02 PM 40.7°F4.8°C 24.0°F-4.4°C 51% 9.0 mph WNW14.5 kmh WNW 15.0 mph24.1 kmh 29.78 in1008.5 mb 0.00 in0.0 mm 0.00 in/hr0.0 mm/hr 0.00 in0.0 mm
04:16 PM 40.6°F4.8°C 24.8°F-4.0°C 53% 10.0 mph WSW16.1 kmh WSW 14.0 mph22.5 kmh 29.78 in1008.5 mb 0.00 in0.0 mm 0.00 in/hr0.0 mm/hr 0.00 in0.0 mm
04:31 PM 40.7°F4.8°C 24.0°F-4.4°C 51% 5.0 mph WNW8.0 kmh WNW 12.0 mph19.3 kmh 29.79 in1008.8 mb 0.00 in0.0 mm 0.00 in/hr0.0 mm/hr 0.00 in0.0 mm
04:46 PM 40.9°F4.9°C 24.7°F-4.1°C 52% 4.0 mph NW6.4 kmh NW 11.0 mph17.7 kmh 29.79 in1008.8 mb 0.00 in0.0 mm 0.00 in/hr0.0 mm/hr 0.00 in0.0 mm
05:02 PM 40.6°F4.8°C 23.9°F-4.5°C 51% 5.0 mph NW8.0 kmh NW 12.0 mph19.3 kmh 29.79 in1008.8 mb 0.00 in0.0 mm 0.00 in/hr0.0 mm/hr 0.00 in0.0 mm
05:15 PM 40.5°F4.7°C 23.8°F-4.6°C 51% 4.0 mph NW6.4 kmh NW 11.0 mph17.7 kmh 29.80 in1009.1 mb 0.00 in0.0 mm 0.00 in/hr0.0 mm/hr 0.00 in0.0 mm
05:31 PM 40.2°F4.6°C 23.1°F-4.9°C 50% 6.0 mph NW9.7 kmh NW 12.0 mph19.3 kmh 29.81 in1009.5 mb 0.00 in0.0 mm 0.00 in/hr0.0 mm/hr 0.00 in0.0 mm
05:45 PM 39.9°F4.4°C 23.7°F-4.6°C 52% 6.0 mph W9.7 kmh W 10.0 mph16.1 kmh 29.82 in1009.8 mb 0.00 in0.0 mm 0.00 in/hr0.0 mm/hr 0.00 in0.0 mm
06:03 PM 39.6°F4.2°C 23.0°F-5.0°C 51% 3.0 mph NW4.8 kmh NW 7.0 mph11.3 kmh 29.82 in1009.8 mb 0.00 in0.0 mm 0.00 in/hr0.0 mm/hr 0.00 in0.0 mm
06:16 PM 38.9°F3.8°C 22.8°F-5.1°C 52% 3.0 mph WNW4.8 kmh WNW 9.0 mph14.5 kmh 29.82 in1009.8 mb 0.00 in0.0 mm 0.00 in/hr0.0 mm/hr 0.00 in0.0 mm
06:31 PM 38.1°F3.4°C 22.5°F-5.3°C 53% 2.0 mph WNW3.2 kmh WNW 4.0 mph6.4 kmh 29.83 in1010.2 mb 0.00 in0.0 mm 0.00 in/hr0.0 mm/hr 0.00 in0.0 mm
06:47 PM 36.8°F2.7°C 22.2°F-5.4°C 55% 1.0 mph WNW1.6 kmh WNW 5.0 mph8.0 kmh 29.83 in1010.2 mb 0.00 in0.0 mm 0.00 in/hr0.0 mm/hr 0.00 in0.0 mm
07:02 PM 36.1°F2.3°C 21.9°F-5.6°C 56% 4.0 mph WNW6.4 kmh WNW 4.0 mph6.4 kmh 29.85 in1010.8 mb 0.00 in0.0 mm 0.00 in/hr0.0 mm/hr 0.00 in0.0 mm
07:16 PM 35.7°F2.1°C 21.6°F-5.8°C 56% 2.0 mph WNW3.2 kmh WNW 3.0 mph4.8 kmh 29.86 in1011.2 mb 0.00 in0.0 mm 0.00 in/hr0.0 mm/hr 0.00 in0.0 mm
07:31 PM 35.4°F1.9°C 21.3°F-5.9°C 56% Calm Calm 2.0 mph3.2 kmh 29.86 in1011.2 mb 0.00 in0.0 mm 0.00 in/hr0.0 mm/hr 0.00 in0.0 mm
07:45 PM 34.6°F1.4°C 25.1°F-3.8°C 68% 1.0 mph WSW1.6 kmh WSW 2.0 mph3.2 kmh 29.87 in1011.5 mb 0.00 in0.0 mm 0.00 in/hr0.0 mm/hr 0.00 in0.0 mm
08:02 PM 32.6°F0.3°C 24.6°F-4.1°C 72% 2.0 mph WSW3.2 kmh WSW 3.0 mph4.8 kmh 29.89 in1012.2 mb 0.00 in0.0 mm 0.00 in/hr0.0 mm/hr 0.00 in0.0 mm
08:15 PM 32.9°F0.5°C 23.9°F-4.5°C 69% 1.0 mph W1.6 kmh W 2.0 mph3.2 kmh 29.89 in1012.2 mb 0.00 in0.0 mm 0.00 in/hr0.0 mm/hr 0.00 in0.0 mm
08:31 PM 32.3°F0.2°C 24.6°F-4.1°C 73% 2.0 mph W3.2 kmh W 3.0 mph4.8 kmh 29.91 in1012.9 mb 0.00 in0.0 mm 0.00 in/hr0.0 mm/hr 0.00 in0.0 mm
08:46 PM 32.2°F0.1°C 23.5°F-4.7°C 70% 1.0 mph WSW1.6 kmh WSW 2.0 mph3.2 kmh 29.91 in1012.9 mb 0.00 in0.0 mm 0.00 in/hr0.0 mm/hr 0.00 in0.0 mm
09:02 PM 32.5°F0.3°C 23.8°F-4.6°C 70% Calm Calm -- 29.91 in1012.9 mb 0.00 in0.0 mm 0.00 in/hr0.0 mm/hr 0.00 in0.0 mm
09:16 PM 33.0°F0.6°C 24.3°F-4.3°C 70% Calm Calm -- 29.90 in1012.5 mb 0.00 in0.0 mm 0.00 in/hr0.0 mm/hr 0.00 in0.0 mm
09:30 PM 33.4°F0.8°C 25.0°F-3.9°C 71% Calm Calm 1.0 mph1.6 kmh 29.90 in1012.5 mb 0.00 in0.0 mm 0.00 in/hr0.0 mm/hr 0.00 in0.0 mm
09:45 PM 33.0°F0.6°C 25.3°F-3.7°C 73% Calm Calm 1.0 mph1.6 kmh 29.90 in1012.5 mb 0.00 in0.0 mm 0.00 in/hr0.0 mm/hr 0.00 in0.0 mm
10:03 PM 32.5°F0.3°C 26.1°F-3.3°C 77% 2.0 mph WSW3.2 kmh WSW 2.0 mph3.2 kmh 29.91 in1012.9 mb 0.00 in0.0 mm 0.00 in/hr0.0 mm/hr 0.00 in0.0 mm
10:16 PM 31.6°F-0.2°C 26.2°F-3.2°C 80% 2.0 mph WSW3.2 kmh WSW 3.0 mph4.8 kmh 29.91 in1012.9 mb 0.00 in0.0 mm 0.00 in/hr0.0 mm/hr 0.00 in0.0 mm
10:31 PM 31.4°F-0.3°C 26.0°F-3.3°C 80% 2.0 mph WSW3.2 kmh WSW 3.0 mph4.8 kmh 29.91 in1012.9 mb 0.00 in0.0 mm 0.00 in/hr0.0 mm/hr 0.00 in0.0 mm
10:46 PM 31.3°F-0.4°C 26.8°F-2.9°C 83% 1.0 mph SW1.6 kmh SW 2.0 mph3.2 kmh 29.91 in1012.9 mb 0.00 in0.0 mm 0.00 in/hr0.0 mm/hr 0.00 in0.0 mm
11:02 PM 31.4°F-0.3°C 26.3°F-3.2°C 81% 2.0 mph S3.2 kmh S 3.0 mph4.8 kmh 29.91 in1012.9 mb 0.00 in0.0 mm 0.00 in/hr0.0 mm/hr 0.00 in0.0 mm
11:16 PM 31.5°F-0.3°C 26.1°F-3.3°C 80% 1.0 mph S1.6 kmh S 4.0 mph6.4 kmh 29.91 in1012.9 mb 0.00 in0.0 mm 0.00 in/hr0.0 mm/hr 0.00 in0.0 mm
11:31 PM 31.3°F-0.4°C 25.6°F-3.6°C 79% 3.0 mph S4.8 kmh S 3.0 mph4.8 kmh 29.90 in1012.5 mb 0.00 in0.0 mm 0.00 in/hr0.0 mm/hr 0.00 in0.0 mm
11:46 PM 31.0°F-0.6°C 25.6°F-3.6°C 80% 1.0 mph S1.6 kmh S 3.0 mph4.8 kmh 29.90 in1012.5 mb 0.00 in0.0 mm 0.00 in/hr0.0 mm/hr 0.00 in0.0 mm